createdAt,value
2022-11-13T00:02:52.892Z,32.33
2022-11-13T00:08:13.247Z,32.28
2022-11-13T00:13:34.557Z,30.42
2022-11-13T00:18:54.785Z,30.58
2022-11-13T00:24:14.743Z,31.23
2022-11-13T00:29:34.840Z,31.35
2022-11-13T00:34:54.943Z,29.17
2022-11-13T00:40:15.372Z,26.33
2022-11-13T00:45:35.568Z,26.83
2022-11-13T00:50:56.668Z,24.40
2022-11-13T00:56:16.827Z,24.27
2022-11-13T01:01:37.174Z,24.15
2022-11-13T01:12:17.607Z,20.67
2022-11-13T01:17:38.090Z,20.65
2022-11-13T01:22:58.103Z,22.73
2022-11-13T01:28:18.104Z,22.52
2022-11-13T01:33:38.894Z,21.80
2022-11-13T01:38:59.041Z,21.20
2022-11-13T01:44:20.136Z,21.73
2022-11-13T01:49:44.678Z,22.85
2022-11-13T01:55:11.710Z,24.00
2022-11-13T02:00:31.648Z,23.67
2022-11-13T02:05:54.843Z,24.42
2022-11-13T02:11:15.123Z,23.17
2022-11-13T02:16:37.830Z,23.75
2022-11-13T02:22:23.576Z,21.92
2022-11-13T02:27:49.277Z,20.45
2022-11-13T02:33:33.504Z,20.98
2022-11-13T02:38:55.569Z,20.33
2022-11-13T02:44:15.588Z,20.20
2022-11-13T02:49:35.699Z,19.95
2022-11-13T02:54:55.879Z,18.50
2022-11-13T03:00:16.366Z,18.92
2022-11-13T03:05:36.423Z,20.08
2022-11-13T03:10:56.570Z,19.52
2022-11-13T03:16:19.295Z,21.23
2022-11-13T03:21:39.110Z,24.00
2022-11-13T03:26:59.064Z,25.05
2022-11-13T03:37:39.246Z,24.52
2022-11-13T03:42:59.392Z,23.23
2022-11-13T03:48:19.344Z,25.45
2022-11-13T03:53:39.411Z,27.13
2022-11-13T03:58:59.599Z,25.23
2022-11-13T04:04:19.744Z,23.95
2022-11-13T04:09:40.056Z,24.33
2022-11-13T04:15:00.242Z,22.38
2022-11-13T04:20:20.691Z,22.58
2022-11-13T04:25:40.783Z,22.77
2022-11-13T04:31:01.054Z,21.92
2022-11-13T04:36:21.233Z,20.95
2022-11-13T04:42:00.099Z,19.65
2022-11-13T04:47:20.499Z,19.60
2022-11-13T04:52:41.049Z,20.45
2022-11-13T04:58:00.935Z,20.77
2022-11-13T05:03:20.877Z,19.38
2022-11-13T05:08:41.044Z,18.10
2022-11-13T05:14:03.625Z,18.55
2022-11-13T05:19:23.801Z,20.88
2022-11-13T05:24:44.015Z,17.58
2022-11-13T05:30:04.780Z,19.77
2022-11-13T05:35:25.047Z,19.58
2022-11-13T05:40:45.308Z,19.70
2022-11-13T05:51:32.449Z,16.65
2022-11-13T05:56:52.497Z,17.52
2022-11-13T06:02:12.750Z,17.65
2022-11-13T06:07:32.851Z,15.35
2022-11-13T06:12:55.178Z,17.75
2022-11-13T06:18:15.381Z,15.15
2022-11-13T06:23:37.555Z,16.73
2022-11-13T06:28:58.844Z,18.17
2022-11-13T06:34:19.012Z,19.58
2022-11-13T06:39:39.296Z,18.85
2022-11-13T06:50:18.935Z,18.02
2022-11-13T06:55:46.955Z,18.63
2022-11-13T07:01:11.297Z,17.10
2022-11-13T07:06:33.876Z,16.48
2022-11-13T07:11:56.729Z,18.33
2022-11-13T07:17:16.855Z,19.33
2022-11-13T07:22:36.943Z,18.13
2022-11-13T07:27:57.231Z,18.23
2022-11-13T07:33:17.462Z,18.00
2022-11-13T07:38:37.929Z,17.88
2022-11-13T07:43:57.912Z,16.45
2022-11-13T07:49:17.824Z,15.18
2022-11-13T07:54:38.093Z,16.30
2022-11-13T07:59:58.140Z,13.48
2022-11-13T08:05:18.870Z,14.80
2022-11-13T08:10:39.119Z,16.13
2022-11-13T08:16:00.504Z,13.95
2022-11-13T08:21:21.288Z,15.65
2022-11-13T08:26:41.871Z,14.93
2022-11-13T08:32:02.020Z,13.43
2022-11-13T08:37:21.936Z,14.82
2022-11-13T08:42:41.890Z,13.13
2022-11-13T08:48:03.530Z,15.13
2022-11-13T08:53:24.723Z,14.55
2022-11-13T08:58:44.832Z,14.50
2022-11-13T09:04:04.911Z,14.52
2022-11-13T09:09:25.539Z,14.02
2022-11-13T09:14:45.571Z,14.18
2022-11-13T09:20:09.972Z,14.68
2022-11-13T09:25:37.822Z,15.27
2022-11-13T09:30:58.315Z,13.32
2022-11-13T09:36:18.567Z,12.70
2022-11-13T09:41:48.166Z,12.70
2022-11-13T09:47:23.986Z,13.00
2022-11-13T09:52:45.832Z,13.25
2022-11-13T09:58:39.630Z,12.23
2022-11-13T10:04:04.693Z,12.25
2022-11-13T10:09:55.391Z,11.15
2022-11-13T10:15:17.589Z,11.63
2022-11-13T10:20:43.256Z,10.85
2022-11-13T10:26:24.832Z,11.20
2022-11-13T10:31:47.960Z,12.13
2022-11-13T10:37:22.105Z,10.90
2022-11-13T10:42:42.171Z,9.35
2022-11-13T10:48:04.760Z,10.70
2022-11-13T10:53:27.494Z,9.70
2022-11-13T10:59:11.178Z,10.43
2022-11-13T11:04:31.412Z,10.23
2022-11-13T11:09:52.008Z,9.02
2022-11-13T11:15:26.195Z,9.55
2022-11-13T11:20:54.344Z,10.10
2022-11-13T11:26:23.212Z,9.40
2022-11-13T11:32:01.337Z,9.85
2022-11-13T11:37:24.324Z,8.65
2022-11-13T11:43:12.006Z,8.00
2022-11-13T11:48:34.239Z,7.72
2022-11-13T11:54:01.118Z,7.90
2022-11-13T11:59:45.414Z,7.18
2022-11-13T12:05:44.072Z,7.15
2022-11-13T12:11:18.726Z,6.50
2022-11-13T12:16:45.554Z,6.65
2022-11-13T12:22:46.901Z,6.65
2022-11-13T12:28:29.194Z,6.70
2022-11-13T12:34:01.076Z,6.40
2022-11-13T12:39:53.720Z,6.25
2022-11-13T12:45:24.050Z,6.00
2022-11-13T12:56:06.396Z,6.00
2022-11-13T13:01:32.600Z,5.15
2022-11-13T13:07:23.514Z,5.05
2022-11-13T13:13:02.102Z,6.20
2022-11-13T13:18:37.324Z,7.82
2022-11-13T13:24:07.232Z,7.25
2022-11-13T13:29:29.443Z,7.20
2022-11-13T13:34:58.782Z,7.40
2022-11-13T13:40:49.240Z,8.00
2022-11-13T13:46:24.656Z,7.70
2022-11-13T13:51:48.129Z,7.25
2022-11-13T13:57:14.344Z,7.00
2022-11-13T14:02:34.423Z,8.18
2022-11-13T14:07:56.804Z,7.35
2022-11-13T14:13:28.042Z,7.57
2022-11-13T14:18:48.357Z,7.00
2022-11-13T14:24:16.869Z,7.22
2022-11-13T14:30:03.064Z,7.70
2022-11-13T14:35:25.664Z,7.80
2022-11-13T14:40:48.732Z,7.47
2022-11-13T14:46:28.247Z,7.63
2022-11-13T14:51:54.953Z,7.38
2022-11-13T14:57:15.895Z,8.13
2022-11-13T15:02:36.148Z,7.88
2022-11-13T15:07:57.537Z,7.63
2022-11-13T15:13:18.414Z,7.57
2022-11-13T15:18:38.821Z,8.75
2022-11-13T15:24:01.078Z,8.05
2022-11-13T15:29:21.309Z,8.75
2022-11-13T15:34:41.482Z,8.43
2022-11-13T15:40:01.890Z,9.43
2022-11-13T15:45:22.129Z,9.05
2022-11-13T15:50:42.268Z,8.98
2022-11-13T15:56:05.084Z,9.60
2022-11-13T16:01:25.556Z,7.80
2022-11-13T16:06:46.122Z,6.60
2022-11-13T16:12:06.279Z,7.95
2022-11-13T16:17:26.575Z,10.73
2022-11-13T16:22:47.020Z,11.85
2022-11-13T16:28:15.364Z,13.63
2022-11-13T16:33:35.475Z,14.77
2022-11-13T16:38:55.695Z,17.90
2022-11-13T16:44:15.818Z,15.32
2022-11-13T16:54:55.520Z,20.85
2022-11-13T17:00:17.829Z,19.15
2022-11-13T17:05:37.768Z,19.35
2022-11-13T17:10:59.543Z,18.92
2022-11-13T17:16:21.588Z,18.52
2022-11-13T17:21:44.754Z,23.13
2022-11-13T17:27:05.218Z,22.60
2022-11-13T17:32:25.251Z,23.98
2022-11-13T17:37:45.502Z,23.08
2022-11-13T17:43:07.891Z,23.92
2022-11-13T17:48:31.581Z,22.98
2022-11-13T17:53:51.780Z,23.23
2022-11-13T17:59:11.984Z,22.02
2022-11-13T18:04:32.293Z,20.35
2022-11-13T18:15:12.200Z,19.00
2022-11-13T18:20:33.332Z,19.80
2022-11-13T18:25:53.907Z,19.83
2022-11-13T18:31:17.790Z,19.52
2022-11-13T18:36:37.716Z,21.10
2022-11-13T18:42:00.320Z,20.02
2022-11-13T18:47:20.382Z,20.10
2022-11-13T18:52:40.554Z,20.00
2022-11-13T19:03:21.007Z,19.63
2022-11-13T19:08:41.902Z,18.63
2022-11-13T19:14:02.215Z,19.50
2022-11-13T19:19:23.894Z,19.52
2022-11-13T19:24:43.751Z,19.02
2022-11-13T19:30:04.524Z,17.98
2022-11-13T19:35:26.042Z,18.25
2022-11-13T19:40:47.832Z,17.33
2022-11-13T19:46:10.504Z,15.38
2022-11-13T19:51:30.830Z,16.95
2022-11-13T19:56:50.887Z,17.92
2022-11-13T20:02:10.870Z,15.63
2022-11-13T20:12:51.107Z,14.88
2022-11-13T20:23:31.012Z,14.57
2022-11-13T20:28:51.224Z,14.63
2022-11-13T20:34:11.513Z,16.70
2022-11-13T20:39:31.760Z,16.23
2022-11-13T20:50:11.524Z,17.75
2022-11-13T21:00:51.549Z,16.30
2022-11-13T21:06:15.559Z,16.90
2022-11-13T21:11:35.571Z,15.75
2022-11-13T21:16:55.729Z,26.52
2022-11-13T21:22:15.794Z,22.40
2022-11-13T21:27:36.012Z,18.05
2022-11-13T21:32:59.815Z,20.02
2022-11-13T21:38:19.740Z,19.13
2022-11-13T21:43:39.891Z,17.58
2022-11-13T21:49:04.009Z,18.00
2022-11-13T21:54:24.253Z,16.08
2022-11-13T21:59:44.599Z,15.63
2022-11-13T22:05:05.475Z,16.70
2022-11-13T22:10:25.334Z,17.00
2022-11-13T22:15:45.477Z,15.10
2022-11-13T22:21:08.556Z,13.70
2022-11-13T22:26:29.634Z,12.65
2022-11-13T22:31:49.411Z,11.50
2022-11-13T22:37:09.468Z,12.27
2022-11-13T22:42:29.506Z,12.02
2022-11-13T22:47:49.636Z,10.98
2022-11-13T22:58:30.826Z,11.20
2022-11-13T23:03:52.646Z,10.80
2022-11-13T23:09:12.692Z,12.10
2022-11-13T23:14:33.381Z,10.73
2022-11-13T23:19:53.648Z,10.93
2022-11-13T23:30:33.537Z,10.65
2022-11-13T23:35:54.279Z,10.48
2022-11-13T23:41:14.739Z,9.73
2022-11-13T23:46:34.837Z,10.15
2022-11-13T23:57:14.820Z,9.73
